Time;durP1;ratioP1;P1;durP2;ratioP2;P2;SDS_P1;SDS_P2;PMS_P1;PMS_P2;Temp;Humidity;BMP_temperature;BMP_pressure;BME280_temperature;BME280_humidity;BME280_pressure;Samples;Min_cycle;Max_cycle;Signal;HPM_P1;HPM_P2
2021/08/24 00:00:54;;;;;;;3.15;1.10;;;;;;;13.21;100.00;101700.16;5187885;28;20026;-80
2021/08/24 00:03:25;;;;;;;1.98;1.00;;;;;;;13.20;100.00;101691.38;5190043;28;20037;-80
2021/08/24 00:05:55;;;;;;;4.15;1.10;;;;;;;13.16;100.00;101694.13;5181414;28;20029;-79
2021/08/24 00:08:26;;;;;;;2.40;1.08;;;;;;;13.24;100.00;101700.91;5195218;28;20030;-79
2021/08/24 00:10:57;;;;;;;1.52;0.82;;;;;;;13.23;100.00;101699.16;5180718;28;20029;-80
2021/08/24 00:13:28;;;;;;;3.15;1.25;;;;;;;13.00;100.00;101703.34;5193328;28;20033;-79
2021/08/24 00:15:59;;;;;;;1.95;1.08;;;;;;;12.99;100.00;101699.00;5195060;28;20392;-78
2021/08/24 00:19:22;;;;;;;1.73;1.00;;;;;;;12.85;100.00;101702.88;5176753;28;20029;-80
2021/08/24 00:21:53;;;;;;;2.17;1.13;;;;;;;12.79;100.00;101706.50;5181627;28;20033;-80
2021/08/24 00:24:23;;;;;;;2.00;0.80;;;;;;;12.73;100.00;101706.69;5177098;28;20076;-80
2021/08/24 00:26:54;;;;;;;1.92;1.10;;;;;;;12.98;100.00;101713.03;5180818;28;20423;-80
2021/08/24 00:29:24;;;;;;;3.00;0.80;;;;;;;12.87;99.83;101714.19;5193942;28;20480;-79
2021/08/24 00:31:54;;;;;;;3.28;1.10;;;;;;;12.86;100.00;101718.59;5186934;28;20022;-79
2021/08/24 00:34:25;;;;;;;1.95;1.10;;;;;;;12.90;100.00;101710.56;5194179;28;20053;-78
2021/08/24 00:36:55;;;;;;;1.67;0.90;;;;;;;12.90;100.00;101714.97;5179220;28;20025;-79
2021/08/24 00:39:25;;;;;;;2.08;1.05;;;;;;;12.82;100.00;101719.53;5194702;28;20084;-79
2021/08/24 00:41:56;;;;;;;1.98;1.10;;;;;;;12.71;100.00;101715.50;5179849;28;20027;-79
2021/08/24 00:44:26;;;;;;;2.40;1.05;;;;;;;12.88;100.00;101716.78;5189472;28;20030;-78
2021/08/24 00:46:56;;;;;;;1.42;0.90;;;;;;;13.11;99.58;101711.78;5191154;28;20017;-78
2021/08/24 00:49:29;;;;;;;2.28;1.20;;;;;;;12.93;100.00;101714.03;5191947;28;20030;-78
2021/08/24 00:52:08;;;;;;;2.72;0.90;;;;;;;12.94;100.00;101706.16;5197679;28;20059;-79
2021/08/24 00:54:41;;;;;;;2.40;1.00;;;;;;;12.84;100.00;101709.03;5156791;28;20021;-80
2021/08/24 00:57:17;;;;;;;2.30;1.08;;;;;;;12.63;100.00;101705.19;5170123;28;20025;-79
2021/08/24 00:59:52;;;;;;;1.77;0.93;;;;;;;12.33;100.00;101716.44;5190953;28;20030;-79
2021/08/24 01:02:25;;;;;;;2.75;1.05;;;;;;;12.15;100.00;101716.03;5172207;28;20084;-80
2021/08/24 01:04:55;;;;;;;2.78;0.98;;;;;;;12.07;100.00;101716.22;5175593;28;20089;-80
2021/08/24 01:07:25;;;;;;;1.67;0.90;;;;;;;12.13;100.00;101715.22;5175516;28;20121;-80
2021/08/24 01:10:17;;;;;;;2.55;1.08;;;;;;;12.23;100.00;101725.44;5179762;28;20029;-79
2021/08/24 01:13:00;;;;;;;1.45;0.90;;;;;;;12.49;100.00;101716.94;5197294;28;20021;-80
2021/08/24 01:15:36;;;;;;;1.67;0.65;;;;;;;12.42;100.00;101713.63;5190855;28;20491;-80
2021/08/24 01:18:11;;;;;;;1.80;0.93;;;;;;;12.28;100.00;101709.63;5173514;28;20062;-78
2021/08/24 01:21:06;;;;;;;2.73;1.20;;;;;;;11.92;100.00;101716.56;5185065;28;20037;-78
2021/08/24 01:23:49;;;;;;;1.85;0.70;;;;;;;12.00;100.00;101717.28;5192517;28;20306;-79
2021/08/24 01:26:29;;;;;;;1.25;0.75;;;;;;;11.89;100.00;101716.66;5193559;28;20033;-80
2021/08/24 01:29:09;;;;;;;1.83;0.90;;;;;;;12.09;100.00;101719.66;5189798;28;20032;-79
2021/08/24 01:31:42;;;;;;;2.58;1.17;;;;;;;12.03;100.00;101724.19;5195050;28;20040;-80
2021/08/24 01:34:25;;;;;;;1.77;0.77;;;;;;;12.04;99.62;101723.28;5178405;28;20026;-79
2021/08/24 01:37:02;;;;;;;1.92;1.10;;;;;;;11.85;98.62;101728.09;5171082;28;20026;-80
2021/08/24 01:39:48;;;;;;;1.80;0.90;;;;;;;11.49;100.00;101721.00;5179670;28;20038;-80
2021/08/24 01:42:20;;;;;;;3.17;1.17;;;;;;;11.77;100.00;101719.53;5193763;28;20037;-79
2021/08/24 01:44:50;;;;;;;4.15;0.95;;;;;;;11.53;100.00;101725.28;5178626;28;20037;-79
2021/08/24 01:47:40;;;;;;;2.25;1.17;;;;;;;11.24;100.00;101727.63;5174908;28;20029;-79
2021/08/24 01:50:21;;;;;;;0.90;0.80;;;;;;;11.15;100.00;101734.78;5182825;28;20033;-80
2021/08/24 01:53:03;;;;;;;1.85;1.10;;;;;;;11.20;100.00;101736.44;5175348;28;20065;-80
2021/08/24 01:55:49;;;;;;;2.10;1.13;;;;;;;11.52;100.00;101734.03;5176015;28;20384;-80
2021/08/24 01:58:21;;;;;;;;;;;;;;;11.50;100.00;101738.44;5176097;28;20029;-80
2021/08/24 02:00:56;;;;;;;1.60;1.00;;;;;;;11.34;100.00;101728.31;5174917;28;19919;-78
2021/08/24 02:03:37;;;;;;;1.48;0.95;;;;;;;11.29;100.00;101730.16;5188595;28;20041;-78
2021/08/24 02:06:15;;;;;;;2.97;1.40;;;;;;;11.20;100.00;101725.97;5194434;28;20079;-79
2021/08/24 02:08:50;;;;;;;2.50;1.00;;;;;;;11.07;100.00;101728.84;5178211;28;20082;-80
2021/08/24 02:11:21;;;;;;;1.92;0.98;;;;;;;11.39;100.00;101727.31;5191059;28;20040;-80
2021/08/24 02:13:53;;;;;;;1.80;1.10;;;;;;;11.45;100.00;101724.56;5177807;28;20021;-78
2021/08/24 02:16:28;;;;;;;1.80;1.10;;;;;;;11.31;100.00;101737.06;5170765;28;20026;-79
2021/08/24 02:19:04;;;;;;;1.70;1.02;;;;;;;11.11;100.00;101735.75;5167461;28;20029;-79
2021/08/24 02:21:41;;;;;;;1.83;0.90;;;;;;;11.29;100.00;101741.47;5170214;28;20136;-80
2021/08/24 02:24:16;;;;;;;1.80;1.00;;;;;;;11.36;100.00;101740.47;5176317;28;20022;-79
2021/08/24 02:26:49;;;;;;;2.07;0.90;;;;;;;11.13;100.00;101741.81;5173502;28;20048;-79
2021/08/24 02:29:19;;;;;;;2.15;1.10;;;;;;;10.91;100.00;101747.47;5190025;28;20210;-78
2021/08/24 02:31:57;;;;;;;2.25;1.27;;;;;;;10.65;100.00;101745.31;5183386;28;20037;-78
2021/08/24 02:34:49;;;;;;;1.30;0.85;;;;;;;10.58;100.00;101754.16;5171314;28;20032;-79
2021/08/24 02:37:55;;;;;;;1.98;1.00;;;;;;;10.62;100.00;101760.19;5197103;28;20508;-79
2021/08/24 02:41:01;;;;;;;1.37;0.90;;;;;;;10.75;100.00;101761.69;5182504;28;20098;-78
2021/08/24 02:43:32;;;;;;;2.53;1.10;;;;;;;10.70;100.00;101751.31;5208109;28;20276;-77
2021/08/24 02:46:18;;;;;;;1.70;1.00;;;;;;;10.69;100.00;101746.13;5194315;28;20052;-79
2021/08/24 02:48:54;;;;;;;1.48;0.93;;;;;;;10.76;100.00;101750.34;5193584;28;20017;-77
2021/08/24 02:51:26;;;;;;;2.05;1.10;;;;;;;10.63;100.00;101754.94;5205854;28;20037;-78
2021/08/24 02:54:37;;;;;;;2.75;0.90;;;;;;;10.79;100.00;101760.75;5189373;28;20018;-77
2021/08/24 02:57:08;;;;;;;1.88;1.10;;;;;;;11.04;100.00;101758.53;5185288;28;20033;-79
2021/08/24 02:59:39;;;;;;;2.45;1.10;;;;;;;11.12;100.00;101746.16;5190519;28;20029;-80
2021/08/24 03:02:12;;;;;;;4.38;1.10;;;;;;;11.00;100.00;101755.16;5186559;28;20033;-80
2021/08/24 03:04:42;;;;;;;1.95;1.20;;;;;;;10.96;100.00;101750.84;5176987;28;20038;-79
2021/08/24 03:07:16;;;;;;;5.60;1.30;;;;;;;11.00;100.00;101753.38;5175051;28;20025;-79
2021/08/24 03:09:47;;;;;;;2.78;1.05;;;;;;;10.73;100.00;101747.78;5179395;28;20025;-79
2021/08/24 03:12:47;;;;;;;3.35;1.55;;;;;;;10.87;100.00;101751.03;5195076;28;20152;-79
2021/08/24 03:15:30;;;;;;;2.05;0.95;;;;;;;10.87;100.00;101757.13;5166744;28;20042;-80
2021/08/24 03:18:05;;;;;;;2.00;1.30;;;;;;;10.99;100.00;101761.28;5170430;28;20108;-79
2021/08/24 03:20:40;;;;;;;2.83;1.15;;;;;;;11.11;100.00;101754.91;5191652;28;20026;-80
2021/08/24 03:23:13;;;;;;;2.28;0.95;;;;;;;11.09;100.00;101750.63;5189883;28;20038;-80
2021/08/24 03:25:46;;;;;;;2.35;1.10;;;;;;;11.02;100.00;101756.84;5193963;28;20480;-80
2021/08/24 03:28:19;;;;;;;3.15;1.30;;;;;;;11.02;100.00;101761.22;5196144;28;20033;-80
2021/08/24 03:30:51;;;;;;;2.35;1.13;;;;;;;11.03;100.00;101763.78;5177189;28;20049;-79
2021/08/24 03:33:21;;;;;;;1.95;1.10;;;;;;;11.13;100.00;101760.97;5176381;28;20491;-78
2021/08/24 03:35:51;;;;;;;1.40;0.82;;;;;;;11.04;100.00;101763.78;5182705;28;20074;-80
2021/08/24 03:38:22;;;;;;;2.15;1.10;;;;;;;10.86;100.00;101765.00;5197001;28;20034;-80
2021/08/24 03:40:53;;;;;;;1.85;1.00;;;;;;;10.98;100.00;101764.75;5182496;28;20025;-80
2021/08/24 03:43:23;;;;;;;2.00;0.85;;;;;;;10.91;100.00;101764.03;5182763;28;20395;-79
2021/08/24 03:45:53;;;;;;;1.58;0.82;;;;;;;11.02;100.00;101763.84;5196326;28;20025;-78
2021/08/24 03:48:24;;;;;;;1.08;0.77;;;;;;;10.78;100.00;101772.09;5177481;28;20037;-80
2021/08/24 03:50:54;;;;;;;1.50;0.95;;;;;;;10.48;100.00;101767.41;5187019;28;20026;-80
2021/08/24 03:53:24;;;;;;;2.35;1.00;;;;;;;10.73;100.00;101771.34;5195142;28;20040;-79
2021/08/24 03:55:55;;;;;;;1.73;0.93;;;;;;;10.75;100.00;101767.81;5199947;28;20026;-79
2021/08/24 03:58:25;;;;;;;1.88;0.88;;;;;;;10.90;99.21;101771.91;5179224;28;20036;-81
2021/08/24 04:00:55;;;;;;;1.88;0.90;;;;;;;10.83;100.00;101776.38;5179355;28;20029;-80
2021/08/24 04:03:27;;;;;;;1.67;1.00;;;;;;;10.52;100.00;101775.16;5201687;28;20037;-80
2021/08/24 04:06:02;;;;;;;2.30;1.20;;;;;;;10.39;100.00;101778.00;5200195;28;20026;-81
2021/08/24 04:08:33;;;;;;;2.03;1.13;;;;;;;10.30;100.00;101779.00;5179451;28;20025;-79
2021/08/24 04:11:05;;;;;;;2.45;1.10;;;;;;;10.32;100.00;101784.22;5199499;28;20273;-80
2021/08/24 04:13:35;;;;;;;2.60;1.58;;;;;;;10.17;100.00;101784.44;5179591;28;20029;-80
2021/08/24 04:16:10;;;;;;;1.63;1.10;;;;;;;10.36;100.00;101784.13;5180949;28;20475;-81
2021/08/24 04:18:41;;;;;;;3.13;1.50;;;;;;;10.44;100.00;101786.63;5177345;28;20014;-81
2021/08/24 04:21:15;;;;;;;2.78;1.10;;;;;;;10.33;100.00;101788.56;5185891;22;20022;-80
2021/08/24 04:23:48;;;;;;;2.58;1.17;;;;;;;10.60;100.00;101785.50;5202342;28;20041;-78
2021/08/24 04:26:18;;;;;;;2.17;1.00;;;;;;;10.73;100.00;101784.41;5202443;28;20041;-79
2021/08/24 04:28:48;;;;;;;2.47;1.25;;;;;;;10.86;100.00;101783.31;5203799;28;20034;-78
2021/08/24 04:31:19;;;;;;;2.20;1.15;;;;;;;10.97;100.00;101782.22;5198095;28;20042;-82
2021/08/24 04:33:49;;;;;;;2.45;1.27;;;;;;;11.11;100.00;101780.22;5194652;28;20022;-79
2021/08/24 04:36:19;;;;;;;3.53;1.50;;;;;;;11.22;100.00;101789.59;5196010;28;20037;-78
2021/08/24 04:38:50;;;;;;;2.50;1.25;;;;;;;11.15;100.00;101785.38;5191275;28;20022;-79
2021/08/24 04:41:20;;;;;;;3.15;1.50;;;;;;;11.17;100.00;101794.06;5192945;28;20415;-79
2021/08/24 04:43:50;;;;;;;2.22;1.40;;;;;;;11.17;100.00;101801.03;5189816;28;20026;-79
2021/08/24 04:46:21;;;;;;;3.58;1.30;;;;;;;11.17;100.00;101801.91;5193369;28;20032;-79
2021/08/24 04:48:51;;;;;;;4.28;1.80;;;;;;;11.19;100.00;101807.09;5186295;28;20040;-79
2021/08/24 04:51:22;;;;;;;2.08;1.20;;;;;;;11.41;100.00;101814.53;5166664;28;20033;-79
2021/08/24 04:53:52;;;;;;;3.70;1.40;;;;;;;11.57;100.00;101808.13;5189622;28;20472;-80
2021/08/24 04:56:22;;;;;;;2.43;1.40;;;;;;;11.69;100.00;101820.13;5193108;28;20048;-79
2021/08/24 04:58:53;;;;;;;4.40;1.40;;;;;;;11.85;100.00;101822.41;5188956;28;20269;-79
2021/08/24 05:01:23;;;;;;;3.35;1.40;;;;;;;11.93;100.00;101824.88;5180860;28;20037;-79
2021/08/24 05:03:53;;;;;;;2.33;1.20;;;;;;;11.96;100.00;101833.50;5188718;28;20032;-79
2021/08/24 05:06:24;;;;;;;3.65;1.70;;;;;;;12.10;100.00;101836.69;5189176;28;20041;-79
2021/08/24 05:08:54;;;;;;;4.65;1.38;;;;;;;12.16;100.00;101833.94;5185104;28;20041;-79
2021/08/24 05:11:24;;;;;;;3.10;1.50;;;;;;;12.26;100.00;101832.84;5192815;28;20029;-79
2021/08/24 05:13:55;;;;;;;2.60;1.27;;;;;;;12.39;100.00;101836.91;5189036;28;20542;-80
2021/08/24 05:16:25;;;;;;;4.25;1.30;;;;;;;12.52;100.00;101835.75;5194210;28;20505;-79
2021/08/24 05:18:55;;;;;;;2.78;1.23;;;;;;;12.76;100.00;101837.78;5186916;28;20021;-79
2021/08/24 05:21:25;;;;;;;2.15;1.25;;;;;;;13.46;98.36;101832.47;5186138;28;20617;-80
2021/08/24 05:23:56;;;;;;;2.65;1.48;;;;;;;15.17;90.56;101828.84;5172173;28;20017;-79
2021/08/24 05:26:26;;;;;;;3.30;1.10;;;;;;;16.93;82.73;101825.59;5193929;28;20029;-82
2021/08/24 05:28:57;;;;;;;4.15;1.35;;;;;;;17.41;79.61;101837.63;5190114;28;20084;-82
2021/08/24 05:31:27;;;;;;;2.55;1.30;;;;;;;18.59;76.25;101825.06;5180792;28;20033;-78
2021/08/24 05:33:57;;;;;;;2.20;1.17;;;;;;;20.17;70.20;101827.34;5188201;28;20029;-78
2021/08/24 05:36:27;;;;;;;3.73;1.40;;;;;;;21.10;65.41;101819.28;5170834;28;20053;-77
2021/08/24 05:38:58;;;;;;;2.80;1.50;;;;;;;21.77;65.70;101825.78;5191922;28;20395;-77
2021/08/24 05:41:29;;;;;;;2.78;1.20;;;;;;;22.21;64.49;101831.84;5188550;28;20758;-77
2021/08/24 05:43:59;;;;;;;1.90;1.30;;;;;;;20.37;68.34;101840.38;5191719;28;20056;-78
2021/08/24 05:46:30;;;;;;;2.65;1.40;;;;;;;20.12;68.47;101834.69;5188378;28;20038;-78
2021/08/24 05:49:00;;;;;;;2.88;1.52;;;;;;;21.48;65.87;101837.34;5186729;28;20026;-78
2021/08/24 05:51:30;;;;;;;4.13;1.60;;;;;;;20.74;68.38;101840.00;5182726;28;20039;-77
2021/08/24 05:54:01;;;;;;;2.78;1.45;;;;;;;19.02;71.87;101852.03;5189160;28;20682;-77
2021/08/24 05:56:31;;;;;;;3.20;1.50;;;;;;;16.70;80.81;101854.72;5190905;28;20029;-77
2021/08/24 05:59:02;;;;;;;3.42;1.63;;;;;;;15.48;87.07;101850.63;5189338;28;20319;-77
2021/08/24 06:01:32;;;;;;;2.40;1.42;;;;;;;14.19;96.99;101854.00;5161528;28;20036;-77
2021/08/24 06:04:03;;;;;;;3.45;1.55;;;;;;;14.37;96.36;101852.56;5187175;28;20099;-77
2021/08/24 06:06:36;;;;;;;2.85;1.33;;;;;;;14.30;98.43;101846.66;5189261;28;20087;-77
2021/08/24 06:09:10;;;;;;;3.25;1.90;;;;;;;13.77;100.00;101847.31;5191245;28;20021;-77
2021/08/24 06:11:47;;;;;;;4.88;1.70;;;;;;;13.96;100.00;101850.28;5189059;28;20079;-77
2021/08/24 06:14:19;;;;;;;4.28;1.70;;;;;;;13.82;100.00;101862.97;5190987;28;20521;-77
2021/08/24 06:16:56;;;;;;;4.00;1.70;;;;;;;14.09;100.00;101851.66;5188772;28;20033;-77
2021/08/24 06:19:28;;;;;;;4.10;1.70;;;;;;;14.15;100.00;101857.63;5179205;28;20037;-77
2021/08/24 06:21:59;;;;;;;3.83;1.65;;;;;;;14.29;100.00;101859.84;5165991;28;20120;-77
2021/08/24 06:24:31;;;;;;;2.60;1.55;;;;;;;14.17;100.00;101855.81;5190886;28;20036;-77
2021/08/24 06:27:01;;;;;;;3.22;1.70;;;;;;;14.53;99.43;101861.72;5189667;28;20099;-79
2021/08/24 06:29:32;;;;;;;3.08;1.67;;;;;;;14.58;98.39;101863.31;5187065;28;20022;-79
2021/08/24 06:32:05;;;;;;;3.95;1.50;;;;;;;14.78;97.19;101865.31;5178405;28;20030;-78
2021/08/24 06:34:35;;;;;;;2.45;1.40;;;;;;;14.84;96.12;101872.09;5188659;28;20034;-77
2021/08/24 06:37:06;;;;;;;3.20;1.70;;;;;;;15.70;93.31;101863.91;5190660;28;20246;-77
2021/08/24 06:39:36;;;;;;;3.45;1.65;;;;;;;17.87;83.51;101860.25;5191767;28;20084;-78
2021/08/24 06:42:07;;;;;;;3.03;1.53;;;;;;;18.87;79.31;101858.09;5174633;28;20301;-77
2021/08/24 06:44:37;;;;;;;2.80;1.60;;;;;;;20.53;72.26;101854.53;5192252;28;20390;-79
2021/08/24 06:47:07;;;;;;;3.47;1.57;;;;;;;19.12;77.47;101863.91;5192602;28;20025;-78
2021/08/24 06:49:38;;;;;;;3.58;1.30;;;;;;;21.02;71.64;101856.97;5185828;28;20284;-79
2021/08/24 06:52:08;;;;;;;2.35;1.23;;;;;;;21.68;69.52;101853.00;5185914;28;20137;-78
2021/08/24 06:54:38;;;;;;;1.83;1.10;;;;;;;22.60;67.28;101855.13;5188424;28;20245;-78
2021/08/24 06:57:09;;;;;;;2.40;1.37;;;;;;;22.73;64.71;101860.44;5181849;28;20029;-78
2021/08/24 06:59:39;;;;;;;2.53;1.50;;;;;;;23.66;63.91;101862.06;5187474;28;20026;-78
2021/08/24 07:02:09;;;;;;;2.73;1.30;;;;;;;21.65;67.97;101865.63;5185135;28;20312;-78
2021/08/24 07:04:39;;;;;;;2.27;1.20;;;;;;;23.20;64.22;101860.81;5188969;28;20280;-79
2021/08/24 07:07:10;;;;;;;1.67;1.00;;;;;;;24.89;61.59;101863.78;5192720;28;20280;-79
2021/08/24 07:09:40;;;;;;;2.30;1.17;;;;;;;24.86;61.88;101856.00;5193021;28;20839;-79
2021/08/24 07:12:10;;;;;;;1.87;1.00;;;;;;;24.93;61.52;101871.47;5193902;28;20492;-79
2021/08/24 07:14:40;;;;;;;1.67;1.10;;;;;;;24.99;61.09;101865.66;5193828;28;20355;-78
2021/08/24 07:17:11;;;;;;;2.00;1.20;;;;;;;25.66;58.94;101867.63;5192829;28;20030;-79
2021/08/24 07:19:41;;;;;;;1.63;1.10;;;;;;;26.72;56.05;101859.97;5184297;28;20802;-79
2021/08/24 07:22:11;;;;;;;2.17;1.10;;;;;;;26.70;56.43;101870.81;5186630;28;20342;-79
2021/08/24 07:24:42;;;;;;;3.57;1.00;;;;;;;26.92;56.08;101866.25;5186056;28;20085;-78
2021/08/24 07:27:12;;;;;;;4.03;1.38;;;;;;;26.53;57.66;101865.13;5194410;28;20268;-79
2021/08/24 07:29:43;;;;;;;2.22;1.20;;;;;;;26.38;57.17;101866.34;5196236;28;20416;-78
2021/08/24 07:32:13;;;;;;;1.92;1.10;;;;;;;25.90;59.11;101859.53;5197724;28;20046;-79
2021/08/24 07:34:43;;;;;;;2.08;1.15;;;;;;;24.55;62.71;101867.25;5179255;28;20106;-79
2021/08/24 07:37:14;;;;;;;2.60;1.17;;;;;;;24.60;61.67;101867.78;5198662;28;20052;-79
2021/08/24 07:39:44;;;;;;;1.80;1.13;;;;;;;25.31;60.29;101860.59;5195270;28;20322;-79
2021/08/24 07:42:14;;;;;;;1.60;0.95;;;;;;;24.92;61.55;101867.09;5193740;28;20280;-78
2021/08/24 07:44:45;;;;;;;2.35;0.95;;;;;;;25.84;59.69;101865.34;5194208;28;20037;-79
2021/08/24 07:47:15;;;;;;;1.80;1.00;;;;;;;25.32;60.62;101865.00;5193889;28;20599;-79
2021/08/24 07:49:47;;;;;;;1.73;0.90;;;;;;;26.15;57.83;101861.97;5186398;28;20049;-79
2021/08/24 07:52:17;;;;;;;1.92;0.90;;;;;;;24.45;62.08;101858.16;5190666;28;20825;-78
2021/08/24 07:54:48;;;;;;;1.20;0.80;;;;;;;25.01;62.98;101861.03;5189626;28;20156;-79
2021/08/24 07:57:18;;;;;;;1.63;0.80;;;;;;;24.22;63.14;101877.66;5188489;28;20041;-79
2021/08/24 07:59:48;;;;;;;1.40;0.83;;;;;;;22.41;67.09;101881.25;5169690;28;20316;-78
2021/08/24 08:02:19;;;;;;;2.10;0.90;;;;;;;22.67;67.91;101879.47;5187756;28;20281;-78
2021/08/24 08:04:49;;;;;;;1.38;0.73;;;;;;;22.32;67.46;101877.34;5192356;28;20448;-77
2021/08/24 08:07:21;;;;;;;1.55;0.80;;;;;;;21.04;70.54;101886.16;5191249;28;20045;-78
2021/08/24 08:09:51;;;;;;;2.08;0.90;;;;;;;22.24;68.76;101876.94;5189084;28;20052;-77
2021/08/24 08:12:22;;;;;;;1.37;0.80;;;;;;;22.70;66.88;101867.75;5192088;28;20029;-77
2021/08/24 08:14:52;;;;;;;1.27;0.75;;;;;;;23.43;65.29;101869.94;5189199;28;20313;-77
2021/08/24 08:17:23;;;;;;;1.20;0.60;;;;;;;22.93;64.87;101865.31;5192218;28;20035;-78
2021/08/24 08:19:53;;;;;;;2.03;1.00;;;;;;;23.12;65.67;101871.16;5163622;28;20120;-77
2021/08/24 08:22:23;;;;;;;2.30;1.00;;;;;;;22.19;67.49;101875.53;5187756;28;20047;-78
2021/08/24 08:24:54;;;;;;;3.45;0.80;;;;;;;22.49;67.25;101876.28;5183679;28;20292;-77
2021/08/24 08:27:24;;;;;;;2.10;0.90;;;;;;;23.09;65.30;101876.66;5186999;28;20026;-77
2021/08/24 08:29:54;;;;;;;1.50;0.70;;;;;;;24.76;61.04;101868.31;5187882;28;20324;-78
2021/08/24 08:32:29;;;;;;;1.60;0.68;;;;;;;24.29;60.75;101876.28;5179964;28;20034;-78
2021/08/24 08:34:59;;;;;;;0.80;0.60;;;;;;;23.73;60.67;101886.53;5173490;28;20128;-77
2021/08/24 08:37:29;;;;;;;1.37;0.80;;;;;;;21.71;67.53;101886.56;5178799;28;20124;-77
2021/08/24 08:40:01;;;;;;;1.73;0.82;;;;;;;22.40;65.31;101891.03;5186121;28;20285;-77
2021/08/24 08:42:42;;;;;;;1.02;0.60;;;;;;;22.84;65.10;101895.22;5189046;28;20026;-78
2021/08/24 08:45:22;;;;;;;1.67;0.60;;;;;;;22.89;63.36;101885.13;5188824;28;20080;-78
2021/08/24 08:48:08;;;;;;;1.40;0.60;;;;;;;24.01;61.94;101883.69;5191439;28;20044;-77
2021/08/24 08:50:47;;;;;;;1.42;0.80;;;;;;;21.78;64.99;101898.53;5190059;28;20117;-77
2021/08/24 08:53:42;;;;;;;1.58;0.70;;;;;;;22.41;63.60;101891.91;5187292;28;20103;-78
2021/08/24 08:56:26;;;;;;;1.67;0.70;;;;;;;21.97;63.87;101902.66;5185074;28;20041;-77
2021/08/24 08:59:09;;;;;;;2.05;0.88;;;;;;;21.22;65.30;101901.03;5188703;28;20026;-77
2021/08/24 09:01:57;;;;;;;0.88;0.52;;;;;;;22.12;64.27;101898.19;5179988;28;20034;-78
2021/08/24 09:04:37;;;;;;;1.38;0.70;;;;;;;22.47;63.89;101888.84;5187183;28;20104;-78
2021/08/24 09:07:29;;;;;;;2.30;0.90;;;;;;;21.12;67.04;101894.53;5183065;28;20026;-77
2021/08/24 09:10:00;;;;;;;1.23;0.60;;;;;;;22.93;63.47;101894.66;5177717;28;20079;-77
2021/08/24 09:12:31;;;;;;;1.80;0.75;;;;;;;21.82;65.29;101902.72;5180627;28;20034;-78
2021/08/24 09:15:07;;;;;;;1.42;0.80;;;;;;;22.39;64.51;101899.16;5177921;28;20071;-78
2021/08/24 09:17:38;;;;;;;;;;;;;;;20.71;68.66;101920.75;5178721;28;20066;-77
2021/08/24 09:20:37;;;;;;;1.58;0.60;;;;;;;20.82;67.48;101920.16;5177107;28;19921;-77
2021/08/24 09:23:11;;;;;;;1.75;0.70;;;;;;;22.77;64.01;101896.59;5164796;28;20419;-78
2021/08/24 09:26:07;;;;;;;1.70;0.80;;;;;;;23.22;62.63;101901.59;5182261;28;20476;-78
2021/08/24 09:28:37;;;;;;;1.35;0.60;;;;;;;21.82;65.33;101902.72;5182527;28;20088;-78
2021/08/24 09:31:16;;;;;;;3.78;0.85;;;;;;;21.43;65.41;101900.59;5177357;28;20345;-77
2021/08/24 09:33:48;;;;;;;0.98;0.60;;;;;;;21.61;66.72;101898.66;5179193;28;20490;-77
2021/08/24 09:36:19;;;;;;;1.58;0.50;;;;;;;21.09;67.76;101903.53;5182974;28;20037;-77
2021/08/24 09:38:58;;;;;;;1.20;0.70;;;;;;;20.85;68.39;101904.06;5183357;28;20032;-77
2021/08/24 09:41:32;;;;;;;1.70;0.82;;;;;;;19.97;69.92;101912.47;5182280;28;20058;-77
2021/08/24 09:44:35;;;;;;;1.35;0.60;;;;;;;20.11;69.31;101912.63;5181412;28;20121;-78
2021/08/24 09:47:15;;;;;;;1.02;0.70;;;;;;;20.21;69.88;101897.94;5145667;28;20088;-77
2021/08/24 09:49:47;;;;;;;1.38;0.75;;;;;;;20.40;72.83;101898.66;5178856;28;20326;-78
2021/08/24 09:52:27;;;;;;;2.53;1.08;;;;;;;20.04;71.03;101905.94;5183297;28;20075;-77
2021/08/24 09:55:06;;;;;;;1.23;0.60;;;;;;;19.75;73.13;101895.13;5162040;28;20057;-77
2021/08/24 09:57:46;;;;;;;1.73;0.77;;;;;;;20.67;69.92;101898.91;5182790;28;20034;-77
2021/08/24 10:00:31;;;;;;;1.58;0.73;;;;;;;20.47;70.14;101896.50;5179232;28;20064;-78
2021/08/24 10:03:26;;;;;;;1.10;0.57;;;;;;;20.27;71.05;101889.63;5177481;28;20034;-79
2021/08/24 10:06:23;;;;;;;1.60;0.70;;;;;;;20.76;70.50;101896.59;5179683;28;20543;-79
2021/08/24 10:09:11;;;;;;;1.40;0.68;;;;;;;21.15;67.95;101897.00;5181191;28;20057;-78
2021/08/24 10:11:41;;;;;;;1.42;0.60;;;;;;;20.75;69.31;101898.38;5183743;28;20022;-78
2021/08/24 10:14:27;;;;;;;3.80;0.70;;;;;;;20.37;67.66;101897.94;5184184;28;20041;-78
2021/08/24 10:16:58;;;;;;;1.73;0.68;;;;;;;20.61;68.55;101893.94;5183955;28;20083;-78
2021/08/24 10:19:33;;;;;;;1.67;0.60;;;;;;;20.72;67.52;101889.75;5163124;28;20226;-78
2021/08/24 10:22:07;;;;;;;0.95;0.50;;;;;;;20.53;68.66;101889.06;5199225;22;20041;-76
2021/08/24 10:24:40;;;;;;;1.23;0.75;;;;;;;20.67;68.62;101891.78;5180397;28;20087;-76
2021/08/24 10:27:31;;;;;;;2.22;0.80;;;;;;;21.41;68.40;101886.53;5198179;28;20032;-77
2021/08/24 10:30:09;;;;;;;1.63;0.80;;;;;;;21.10;67.85;101889.28;5196072;28;20049;-77
2021/08/24 10:32:46;;;;;;;1.30;0.80;;;;;;;21.29;70.00;101886.41;5198612;28;20017;-77
2021/08/24 10:35:24;;;;;;;0.95;0.50;;;;;;;21.32;66.55;101878.25;5197463;28;20037;-77
2021/08/24 10:37:56;;;;;;;1.33;0.68;;;;;;;21.63;67.58;101875.50;5198346;28;20025;-77
2021/08/24 10:40:38;;;;;;;2.25;0.60;;;;;;;21.15;66.60;101867.75;5198962;28;20471;-77
2021/08/24 10:43:14;;;;;;;1.33;0.70;;;;;;;20.95;66.61;101876.03;5197188;28;20407;-77
2021/08/24 10:46:07;;;;;;;3.20;0.90;;;;;;;20.45;67.00;101880.66;5198649;28;20026;-77
2021/08/24 10:48:37;;;;;;;1.48;0.80;;;;;;;20.37;64.86;101871.38;5197942;28;20046;-77
2021/08/24 10:51:13;;;;;;;2.25;0.73;;;;;;;20.23;66.31;101877.47;5198156;28;20041;-76
2021/08/24 10:53:55;;;;;;;2.05;0.70;;;;;;;20.86;67.61;101872.09;5197256;28;20874;-77
2021/08/24 10:56:35;;;;;;;1.60;0.85;;;;;;;20.94;66.48;101875.19;5198243;28;20033;-77
2021/08/24 10:59:13;;;;;;;1.40;0.68;;;;;;;20.62;66.63;101867.28;5200681;28;20555;-77
2021/08/24 11:01:51;;;;;;;0.85;0.60;;;;;;;20.58;66.88;101867.53;5203207;28;20450;-77
2021/08/24 11:04:44;;;;;;;2.28;0.75;;;;;;;20.50;64.70;101867.94;5201267;28;20446;-77
2021/08/24 11:07:35;;;;;;;2.00;0.75;;;;;;;20.96;65.91;101867.97;5201425;28;20033;-77
2021/08/24 11:10:18;;;;;;;2.35;0.90;;;;;;;20.46;64.63;101870.88;5201943;28;20125;-77
2021/08/24 11:13:25;;;;;;;2.75;0.80;;;;;;;20.54;64.06;101866.88;5203269;28;20072;-77
2021/08/24 11:16:18;;;;;;;0.85;0.68;;;;;;;20.86;64.97;101871.25;5201780;28;20025;-77
2021/08/24 11:18:52;;;;;;;2.35;0.90;;;;;;;21.01;63.73;101880.97;5200816;28;20029;-77
2021/08/24 11:21:46;;;;;;;1.27;0.73;;;;;;;20.92;64.16;101865.56;5201066;28;20438;-77
2021/08/24 11:24:19;;;;;;;1.73;0.73;;;;;;;21.25;62.39;101874.25;5199689;28;20357;-77
2021/08/24 11:27:11;;;;;;;1.50;0.80;;;;;;;20.87;63.79;101878.28;5202700;28;20115;-77
2021/08/24 11:29:56;;;;;;;2.17;1.00;;;;;;;20.44;65.40;101868.31;5202560;28;20487;-77
2021/08/24 11:32:43;;;;;;;1.90;0.80;;;;;;;20.72;65.60;101879.13;5199607;28;20048;-77
2021/08/24 11:35:18;;;;;;;1.80;0.80;;;;;;;20.61;65.47;101876.19;5200483;28;20394;-76
2021/08/24 11:37:58;;;;;;;2.17;1.10;;;;;;;20.65;66.73;101874.22;5201528;28;20029;-77
2021/08/24 11:40:47;;;;;;;1.67;0.90;;;;;;;20.40;66.17;101866.78;5200104;28;20046;-76
2021/08/24 11:43:24;;;;;;;2.92;1.10;;;;;;;20.62;65.04;101869.94;5182829;28;20132;-76
2021/08/24 11:45:58;;;;;;;1.92;0.90;;;;;;;20.91;64.60;101863.84;5201198;28;20069;-77
2021/08/24 11:48:32;;;;;;;3.28;0.90;;;;;;;20.52;64.49;101862.56;5201291;28;20554;-77
2021/08/24 11:51:15;;;;;;;2.70;1.00;;;;;;;20.51;64.93;101861.69;5201659;28;20041;-77
2021/08/24 11:53:50;;;;;;;2.33;1.10;;;;;;;20.72;65.40;101863.16;5201363;28;20560;-77
2021/08/24 11:56:45;;;;;;;2.10;1.00;;;;;;;20.74;63.80;101855.97;5182126;28;20042;-77
2021/08/24 11:59:27;;;;;;;1.50;0.98;;;;;;;20.84;62.39;101854.50;5200086;28;20322;-77